Time;durP1;ratioP1;P1;durP2;ratioP2;P2;SDS_P1;SDS_P2;PMS_P1;PMS_P2;Temp;Humidity;BMP_temperature;BMP_pressure;BME280_temperature;BME280_humidity;BME280_pressure;Samples;Min_cycle;Max_cycle;Signal;HPM_P1;HPM_P2
2022/09/01 00:01:38;;;;;;;4.50;2.15;;;15.40;99.90;;;;;;5112943;28;20032;-60
2022/09/01 00:04:05;;;;;;;7.45;1.90;;;15.30;99.90;;;;;;5093813;28;20123;-60
2022/09/01 00:06:33;;;;;;;4.95;1.75;;;15.30;99.90;;;;;;5113058;28;20476;-60
2022/09/01 00:09:07;;;;;;;5.40;2.08;;;15.30;99.90;;;;;;5094707;28;20048;-60
2022/09/01 00:11:33;;;;;;;4.15;1.67;;;15.30;99.90;;;;;;5112051;28;20104;-60
2022/09/01 00:14:01;;;;;;;5.43;1.80;;;15.30;99.90;;;;;;5112539;28;20529;-60
2022/09/01 00:16:28;;;;;;;3.90;1.80;;;15.20;99.90;;;;;;5112597;28;20047;-61
2022/09/01 00:18:54;;;;;;;3.22;1.52;;;15.20;99.90;;;;;;5093825;28;20063;-60
2022/09/01 00:21:26;;;;;;;4.43;1.92;;;15.20;99.90;;;;;;5112304;28;20385;-60
2022/09/01 00:23:52;;;;;;;3.58;1.60;;;15.20;99.90;;;;;;5094747;28;20376;-60
2022/09/01 00:26:17;;;;;;;5.65;2.03;;;15.20;99.90;;;;;;5111159;28;20032;-60
2022/09/01 00:28:43;;;;;;;4.90;1.60;;;15.20;99.90;;;;;;5094390;28;20044;-60
2022/09/01 00:31:17;;;;;;;4.65;1.40;;;15.10;99.90;;;;;;5093357;28;20046;-60
2022/09/01 00:33:43;;;;;;;3.93;1.50;;;15.10;99.90;;;;;;5094522;28;20051;-60
2022/09/01 00:36:09;;;;;;;6.05;2.13;;;15.10;99.90;;;;;;5093885;28;20056;-60
2022/09/01 00:38:36;;;;;;;5.47;1.92;;;15.00;99.90;;;;;;5093434;28;20043;-60
2022/09/01 00:41:02;;;;;;;3.78;1.70;;;15.00;99.90;;;;;;5112050;28;20028;-60
2022/09/01 00:43:37;;;;;;;4.63;1.85;;;14.90;99.90;;;;;;5112779;28;20472;-60
2022/09/01 00:46:05;;;;;;;4.00;1.77;;;14.90;99.90;;;;;;5111421;28;20075;-60
2022/09/01 00:48:31;;;;;;;4.60;1.85;;;14.90;99.90;;;;;;5112772;28;20079;-60
2022/09/01 00:50:57;;;;;;;3.80;1.65;;;14.80;99.90;;;;;;5112526;28;20043;-60
2022/09/01 00:53:23;;;;;;;4.15;2.00;;;14.80;99.90;;;;;;5110967;28;20525;-60
2022/09/01 00:55:48;;;;;;;4.18;1.55;;;14.70;99.90;;;;;;5112495;28;20119;-60
2022/09/01 00:58:14;;;;;;;3.45;1.60;;;14.70;99.90;;;;;;5111988;28;20190;-60
2022/09/01 01:00:40;;;;;;;4.35;1.70;;;14.70;99.90;;;;;;5111874;28;20119;-60
2022/09/01 01:03:13;;;;;;;3.67;1.77;;;14.60;99.90;;;;;;5076635;28;20051;-60
2022/09/01 01:05:53;;;;;;;4.28;1.90;;;14.60;99.90;;;;;;5094583;28;20051;-60
2022/09/01 01:08:33;;;;;;;4.25;2.08;;;14.50;99.90;;;;;;5092754;28;20043;-60
2022/09/01 01:11:01;;;;;;;5.03;1.50;;;14.60;99.90;;;;;;5077262;28;20043;-60
2022/09/01 01:13:27;;;;;;;4.38;1.80;;;14.50;99.90;;;;;;5092930;28;20074;-60
2022/09/01 01:15:53;;;;;;;6.05;1.70;;;14.50;99.90;;;;;;5112214;28;20111;-60
2022/09/01 01:18:18;;;;;;;4.10;1.90;;;14.50;99.90;;;;;;5093177;28;20472;-60
2022/09/01 01:23:39;;;;;;;4.13;1.60;;;14.40;99.90;;;;;;5112231;28;20040;-60
2022/09/01 01:26:11;;;;;;;4.25;1.60;;;14.40;99.90;;;;;;5114394;28;20076;-60
2022/09/01 01:28:43;;;;;;;4.45;1.92;;;14.40;99.90;;;;;;5114996;28;20484;-60
2022/09/01 01:31:14;;;;;;;3.63;1.95;;;14.30;99.90;;;;;;5115352;28;20084;-60
2022/09/01 01:33:46;;;;;;;4.82;1.83;;;14.30;99.90;;;;;;5097557;28;20048;-60
2022/09/01 01:36:35;;;;;;;3.90;1.88;;;14.30;99.90;;;;;;5096181;28;20039;-60
2022/09/01 01:39:10;;;;;;;5.10;1.70;;;14.30;99.90;;;;;;5114908;28;20126;-60
2022/09/01 01:41:43;;;;;;;5.57;1.80;;;14.20;99.90;;;;;;5114776;28;20557;-60
2022/09/01 01:44:11;;;;;;;4.20;2.15;;;14.20;99.90;;;;;;5080128;28;20024;-60
2022/09/01 01:46:42;;;;;;;4.55;1.90;;;14.20;99.90;;;;;;5097453;28;20040;-60
2022/09/01 01:49:12;;;;;;;4.38;1.98;;;14.20;99.90;;;;;;5114283;28;20071;-60
2022/09/01 01:51:38;;;;;;;4.35;1.90;;;14.10;99.90;;;;;;5115488;28;20035;-60
2022/09/01 01:54:06;;;;;;;4.88;1.90;;;14.10;99.90;;;;;;5096630;28;20492;-60
2022/09/01 01:56:34;;;;;;;3.10;1.50;;;14.10;99.90;;;;;;5096638;28;20357;-60
2022/09/01 01:59:00;;;;;;;5.07;1.88;;;14.10;99.90;;;;;;5096923;28;20525;-60
2022/09/01 02:01:28;;;;;;;3.75;1.65;;;14.10;99.90;;;;;;5114888;28;20392;-60
2022/09/01 02:03:55;;;;;;;3.58;1.85;;;14.10;99.90;;;;;;5096173;28;20043;-60
2022/09/01 02:06:23;;;;;;;2.78;1.48;;;14.10;99.90;;;;;;5096346;28;20581;-59
2022/09/01 02:09:01;;;;;;;2.80;1.30;;;14.10;99.90;;;;;;5096984;28;20040;-60
2022/09/01 02:11:28;;;;;;;4.00;1.83;;;14.10;99.90;;;;;;5078822;28;20040;-60
2022/09/01 02:14:00;;;;;;;4.53;1.70;;;14.10;99.90;;;;;;5096952;28;20062;-60
2022/09/01 02:16:28;;;;;;;5.63;1.90;;;14.20;99.90;;;;;;5096264;28;20062;-60
2022/09/01 02:18:53;;;;;;;4.43;1.75;;;14.20;99.90;;;;;;5114011;28;20414;-60
2022/09/01 02:21:21;;;;;;;3.53;1.70;;;14.20;99.90;;;;;;5095895;28;20126;-60
2022/09/01 02:23:56;;;;;;;4.20;1.83;;;14.20;99.90;;;;;;5095900;28;20039;-60
2022/09/01 02:26:41;;;;;;;3.47;1.83;;;14.20;99.90;;;;;;5114548;28;20051;-60
2022/09/01 02:29:17;;;;;;;3.83;1.65;;;14.20;99.90;;;;;;5079182;28;20093;-60
2022/09/01 02:31:45;;;;;;;4.93;1.92;;;14.20;99.90;;;;;;5114110;28;20096;-60
2022/09/01 02:34:12;;;;;;;3.92;1.70;;;14.20;99.90;;;;;;5095849;28;20122;-60
2022/09/01 02:36:46;;;;;;;3.92;1.80;;;14.20;99.90;;;;;;5114556;28;20116;-60
2022/09/01 02:39:22;;;;;;;7.27;2.00;;;14.20;99.90;;;;;;5094797;28;20498;-60
2022/09/01 02:41:48;;;;;;;6.25;1.88;;;14.20;99.90;;;;;;5096110;28;20122;-60
2022/09/01 02:44:14;;;;;;;4.25;1.60;;;14.20;99.90;;;;;;5095548;28;20088;-60
2022/09/01 02:46:44;;;;;;;3.05;1.45;;;14.20;99.90;;;;;;5113617;28;20032;-60
2022/09/01 02:49:16;;;;;;;3.38;1.52;;;14.20;99.90;;;;;;5095603;28;20046;-60
2022/09/01 02:51:43;;;;;;;4.80;1.65;;;14.20;99.90;;;;;;5114158;28;20118;-60
2022/09/01 02:54:14;;;;;;;4.28;1.60;;;14.20;99.90;;;;;;5077921;28;20048;-60
2022/09/01 02:56:40;;;;;;;3.85;1.80;;;14.20;99.90;;;;;;5095878;28;20107;-60
2022/09/01 02:59:11;;;;;;;4.22;1.90;;;14.20;99.90;;;;;;5077507;28;20055;-60
2022/09/01 03:01:52;;;;;;;4.68;1.67;;;14.20;99.90;;;;;;5113950;28;20071;-60
2022/09/01 03:04:21;;;;;;;3.47;1.50;;;14.20;99.90;;;;;;5095424;28;20044;-60
2022/09/01 03:06:49;;;;;;;3.97;2.10;;;14.20;99.90;;;;;;5112897;28;20502;-60
2022/09/01 03:09:17;;;;;;;3.55;1.65;;;14.20;99.90;;;;;;5113462;28;20051;-60
2022/09/01 03:11:46;;;;;;;4.18;1.92;;;14.20;99.90;;;;;;5096050;28;20051;-60
2022/09/01 03:14:13;;;;;;;4.10;2.00;;;14.20;99.90;;;;;;5077252;28;20039;-60
2022/09/01 03:16:39;;;;;;;3.70;1.88;;;14.20;99.90;;;;;;5078454;28;20123;-60
2022/09/01 03:19:07;;;;;;;4.18;1.75;;;14.20;99.90;;;;;;5112938;28;20048;-60
2022/09/01 03:21:34;;;;;;;3.85;1.80;;;14.20;99.90;;;;;;5094754;28;20067;-60
2022/09/01 03:24:02;;;;;;;5.00;1.98;;;14.20;99.90;;;;;;5095659;28;20054;-60
2022/09/01 03:26:28;;;;;;;4.20;2.28;;;14.20;99.90;;;;;;5113724;28;20076;-60
2022/09/01 03:28:54;;;;;;;4.28;1.60;;;14.20;99.90;;;;;;5094484;28;20044;-60
2022/09/01 03:31:20;;;;;;;5.03;2.15;;;14.20;99.90;;;;;;5112856;28;20376;-60
2022/09/01 03:33:46;;;;;;;3.70;1.88;;;14.20;99.90;;;;;;5113203;28;20047;-60
2022/09/01 03:36:18;;;;;;;3.70;1.92;;;14.20;99.90;;;;;;5093915;28;20036;-60
2022/09/01 03:38:48;;;;;;;5.05;2.30;;;14.20;99.90;;;;;;5095022;28;20048;-60
2022/09/01 03:41:20;;;;;;;3.17;1.70;;;14.10;99.90;;;;;;5093959;28;20040;-60
2022/09/01 03:43:46;;;;;;;3.25;1.60;;;14.10;99.90;;;;;;5095003;28;20114;-60
2022/09/01 03:46:18;;;;;;;3.15;1.70;;;14.10;99.90;;;;;;5094690;28;20032;-60
2022/09/01 03:48:46;;;;;;;5.03;2.03;;;14.10;99.90;;;;;;5111958;28;20065;-60
2022/09/01 03:51:13;;;;;;;3.53;1.75;;;14.10;99.90;;;;;;5094323;28;20487;-60
2022/09/01 03:53:39;;;;;;;3.95;1.75;;;14.10;99.90;;;;;;5094904;28;20085;-60
2022/09/01 03:56:06;;;;;;;4.22;1.50;;;14.10;99.90;;;;;;5111913;28;20063;-60
2022/09/01 03:58:31;;;;;;;3.60;1.85;;;14.00;99.90;;;;;;5113061;28;20047;-60
2022/09/01 04:01:00;;;;;;;6.18;1.80;;;14.00;99.90;;;;;;5094697;28;20568;-60
2022/09/01 04:03:30;;;;;;;4.43;1.67;;;14.00;99.90;;;;;;5111592;28;20039;-60
2022/09/01 04:05:57;;;;;;;3.47;1.77;;;13.90;99.90;;;;;;5094707;28;20058;-60
2022/09/01 04:08:29;;;;;;;4.70;1.98;;;13.90;99.90;;;;;;5112364;28;20085;-60
2022/09/01 04:10:57;;;;;;;5.18;2.10;;;13.90;99.90;;;;;;5094382;28;20043;-60
2022/09/01 04:13:34;;;;;;;4.43;1.92;;;13.90;99.90;;;;;;5093929;28;20126;-60
2022/09/01 04:16:00;;;;;;;5.10;2.03;;;13.80;99.90;;;;;;5094997;28;20039;-60
2022/09/01 04:18:26;;;;;;;5.00;2.00;;;13.80;99.90;;;;;;5093025;28;20128;-60
2022/09/01 04:20:55;;;;;;;4.97;2.20;;;13.80;99.90;;;;;;5094784;28;20479;-60
2022/09/01 04:23:28;;;;;;;4.97;2.50;;;13.80;99.90;;;;;;5111524;28;20067;-60
2022/09/01 04:26:10;;;;;;;4.85;2.33;;;13.70;99.90;;;;;;5094658;28;20042;-60
2022/09/01 04:28:44;;;;;;;4.32;2.47;;;13.70;99.90;;;;;;5112775;28;20065;-60
2022/09/01 04:31:18;;;;;;;4.43;2.42;;;13.70;99.90;;;;;;5093374;28;20430;-60
2022/09/01 04:33:46;;;;;;;3.72;1.92;;;13.60;99.90;;;;;;5094436;28;20047;-60
2022/09/01 04:36:32;;;;;;;4.47;2.38;;;13.60;99.90;;;;;;5111911;28;20105;-60
2022/09/01 04:39:01;;;;;;;5.38;2.38;;;13.60;99.90;;;;;;5111885;28;20115;-60
2022/09/01 04:41:30;;;;;;;6.93;2.88;;;13.60;99.90;;;;;;5094123;28;20067;-60
2022/09/01 04:43:57;;;;;;;4.60;2.50;;;13.50;99.90;;;;;;5094419;28;20122;-60
2022/09/01 04:46:28;;;;;;;5.53;2.42;;;13.50;99.90;;;;;;5111112;28;20499;-60
2022/09/01 04:48:54;;;;;;;5.10;2.38;;;13.50;99.90;;;;;;5094173;28;20051;-60
2022/09/01 04:51:21;;;;;;;5.00;2.40;;;13.50;99.90;;;;;;5093367;28;20365;-60
2022/09/01 04:53:49;;;;;;;4.32;2.40;;;13.50;99.90;;;;;;5094332;28;20097;-60
2022/09/01 04:56:18;;;;;;;6.53;2.00;;;13.50;99.90;;;;;;5077072;28;20417;-60
2022/09/01 04:58:45;;;;;;;4.40;2.33;;;13.50;99.90;;;;;;5093344;28;20040;-60
2022/09/01 05:01:44;;;;;;;5.32;2.80;;;13.50;99.90;;;;;;5096619;28;20111;-60
2022/09/01 05:04:13;;;;;;;4.80;2.17;;;13.50;99.90;;;;;;5097819;28;20043;-60
2022/09/01 05:06:43;;;;;;;5.97;2.65;;;13.50;99.90;;;;;;5097150;28;20165;-60
2022/09/01 05:09:11;;;;;;;5.07;2.42;;;13.50;99.90;;;;;;5097746;28;20047;-60
2022/09/01 05:11:39;;;;;;;4.38;2.30;;;13.50;99.90;;;;;;5097947;28;20129;-60
2022/09/01 05:14:05;;;;;;;4.57;2.70;;;13.50;99.90;;;;;;5114765;28;20047;-60
2022/09/01 05:16:33;;;;;;;5.03;2.72;;;13.50;99.90;;;;;;5115668;28;20484;-60
2022/09/01 05:19:00;;;;;;;4.53;2.38;;;13.50;99.90;;;;;;5116109;28;20043;-60
2022/09/01 05:21:28;;;;;;;4.85;2.47;;;13.50;99.90;;;;;;5114737;28;20035;-60
2022/09/01 05:23:56;;;;;;;6.38;2.20;;;13.50;99.90;;;;;;5116022;28;20036;-60
2022/09/01 05:26:25;;;;;;;5.60;2.88;;;13.50;99.90;;;;;;5096933;28;20043;-60
2022/09/01 05:28:57;;;;;;;4.40;2.30;;;13.50;99.90;;;;;;5115024;28;20049;-60
2022/09/01 05:31:24;;;;;;;5.75;2.67;;;13.50;99.90;;;;;;5096993;28;20043;-60
2022/09/01 05:33:50;;;;;;;4.70;2.45;;;13.50;99.90;;;;;;5115108;28;20078;-60
2022/09/01 05:36:18;;;;;;;5.93;2.80;;;13.60;99.90;;;;;;5115175;28;20059;-60
2022/09/01 05:38:46;;;;;;;6.28;2.58;;;13.60;99.90;;;;;;5118601;27;20454;-60
2022/09/01 05:41:13;;;;;;;4.88;2.42;;;13.70;99.90;;;;;;5114396;28;20088;-60
2022/09/01 05:43:47;;;;;;;5.40;2.50;;;13.70;99.90;;;;;;5097163;28;20070;-60
2022/09/01 05:46:19;;;;;;;4.63;2.53;;;13.70;99.90;;;;;;5096759;28;20189;-60
2022/09/01 05:48:48;;;;;;;11.25;2.55;;;13.80;99.90;;;;;;5114864;28;20122;-60
2022/09/01 05:51:16;;;;;;;4.97;2.53;;;13.80;99.90;;;;;;5128708;27;20100;-60
2022/09/01 05:53:43;;;;;;;5.40;2.58;;;13.90;99.90;;;;;;5076898;28;20043;-60
2022/09/01 05:56:12;;;;;;;4.75;2.63;;;14.00;99.90;;;;;;5092801;28;20436;-60
2022/09/01 05:58:39;;;;;;;5.75;2.75;;;14.00;99.90;;;;;;5092077;28;20051;-60
2022/09/01 06:01:05;;;;;;;8.02;2.90;;;14.10;99.90;;;;;;5071174;28;20146;-60
2022/09/01 06:03:32;;;;;;;5.60;2.58;;;14.10;99.90;;;;;;5112431;27;20038;-60
2022/09/01 06:06:11;;;;;;;4.72;2.65;;;14.20;99.90;;;;;;5086774;28;20043;-60
2022/09/01 06:08:37;;;;;;;4.80;2.00;;;14.30;99.90;;;;;;5112397;27;20054;-60
2022/09/01 06:11:11;;;;;;;4.65;2.75;;;14.30;99.90;;;;;;5131035;27;20118;-60
2022/09/01 06:13:38;;;;;;;4.93;2.40;;;14.40;99.90;;;;;;5133001;27;20074;-60
2022/09/01 06:16:06;;;;;;;5.70;2.10;;;14.40;99.90;;;;;;5112964;27;20373;-60
2022/09/01 06:18:33;;;;;;;4.43;2.42;;;14.50;99.90;;;;;;5108476;27;20060;-60
2022/09/01 06:20:58;;;;;;;7.45;2.30;;;14.50;99.90;;;;;;5089258;28;20059;-60
2022/09/01 06:23:24;;;;;;;4.63;2.70;;;14.60;99.90;;;;;;5095401;27;20403;-60
2022/09/01 06:25:50;;;;;;;5.20;2.45;;;14.70;99.90;;;;;;5057163;28;20040;-60
2022/09/01 06:28:20;;;;;;;4.80;2.58;;;14.80;99.90;;;;;;5090960;28;20104;-60
2022/09/01 06:30:47;;;;;;;5.30;2.40;;;14.80;99.90;;;;;;5089730;28;20066;-60
2022/09/01 06:33:13;;;;;;;5.22;2.63;;;14.80;99.90;;;;;;5103041;27;20089;-60
2022/09/01 06:35:41;;;;;;;4.30;2.30;;;14.90;99.90;;;;;;5093939;28;20063;-60
2022/09/01 06:38:08;;;;;;;5.18;2.70;;;14.90;99.90;;;;;;5101539;27;20148;-60
2022/09/01 06:40:40;;;;;;;5.97;2.78;;;14.90;99.90;;;;;;5122240;27;20036;-60
2022/09/01 06:43:06;;;;;;;5.70;2.70;;;15.00;99.90;;;;;;5128691;27;20118;-60
2022/09/01 06:45:38;;;;;;;4.32;2.35;;;15.00;99.90;;;;;;5111891;27;20036;-60
2022/09/01 06:48:03;;;;;;;4.00;2.22;;;15.10;99.90;;;;;;5111036;28;20043;-61
2022/09/01 06:50:29;;;;;;;5.28;2.60;;;15.20;99.90;;;;;;5093847;28;20043;-60
2022/09/01 06:53:09;;;;;;;5.25;2.30;;;15.30;99.90;;;;;;5089771;28;20047;-60
2022/09/01 06:55:36;;;;;;;4.63;2.63;;;15.50;99.90;;;;;;5113408;27;20391;-61
2022/09/01 06:58:05;;;;;;;4.43;2.20;;;15.60;99.90;;;;;;5091538;28;20498;-61
2022/09/01 07:00:40;;;;;;;5.13;2.15;;;15.70;99.90;;;;;;5109197;27;20092;-61
2022/09/01 07:03:10;;;;;;;;;;;15.80;99.90;;;;;;5111209;28;20078;-61
2022/09/01 07:05:41;;;;;;;4.80;2.35;;;15.80;99.90;;;;;;5109774;27;19931;-60
2022/09/01 07:08:09;;;;;;;3.85;2.00;;;15.80;99.90;;;;;;5130668;27;20045;-60
2022/09/01 07:10:45;;;;;;;4.80;2.53;;;15.90;99.90;;;;;;5130873;27;20095;-61
2022/09/01 07:13:22;;;;;;;4.53;2.30;;;15.90;99.90;;;;;;5111701;27;20086;-60
2022/09/01 07:15:53;;;;;;;5.10;2.58;;;15.90;99.90;;;;;;5092709;28;20079;-60
2022/09/01 07:18:23;;;;;;;5.28;2.58;;;16.00;99.90;;;;;;5110553;27;20058;-60
2022/09/01 07:20:51;;;;;;;4.32;2.38;;;16.00;99.90;;;;;;5093730;28;20047;-60
2022/09/01 07:23:18;;;;;;;4.85;2.10;;;16.10;99.90;;;;;;5094166;27;20107;-60
2022/09/01 07:25:47;;;;;;;4.32;1.92;;;16.20;99.90;;;;;;5088808;28;20046;-60
2022/09/01 07:28:15;;;;;;;7.15;2.47;;;16.30;99.90;;;;;;5104566;27;20373;-60
2022/09/01 07:30:47;;;;;;;5.68;2.55;;;16.40;99.90;;;;;;5075831;28;20143;-60
2022/09/01 07:33:15;;;;;;;7.53;2.40;;;16.50;99.90;;;;;;5088526;28;20040;-60
2022/09/01 07:35:41;;;;;;;5.10;2.00;;;16.70;99.90;;;;;;5125092;27;20490;-60
2022/09/01 07:38:08;;;;;;;5.20;2.30;;;16.80;99.90;;;;;;5112257;27;20479;-60
2022/09/01 07:40:37;;;;;;;6.53;2.50;;;16.90;99.90;;;;;;5127659;27;20069;-60
2022/09/01 07:43:08;;;;;;;7.10;2.28;;;17.00;99.90;;;;;;5095432;27;20031;-61
2022/09/01 07:45:42;;;;;;;3.72;1.60;;;17.00;99.90;;;;;;5130823;27;20039;-61
2022/09/01 07:48:08;;;;;;;6.72;2.10;;;17.20;99.90;;;;;;5115314;27;20039;-61
2022/09/01 07:50:36;;;;;;;4.63;2.35;;;17.20;99.90;;;;;;5111119;27;20079;-61
2022/09/01 07:53:03;;;;;;;4.57;2.30;;;17.30;99.90;;;;;;5094536;27;20065;-60
2022/09/01 07:55:29;;;;;;;4.38;2.08;;;17.40;99.90;;;;;;5118047;27;20039;-61
2022/09/01 07:57:56;;;;;;;4.18;2.35;;;17.50;99.90;;;;;;5100799;27;20058;-61
2022/09/01 08:00:22;;;;;;;5.85;2.10;;;17.60;99.90;;;;;;5079511;27;20043;-61
2022/09/01 08:02:50;;;;;;;4.15;2.10;;;17.60;99.90;;;;;;5120123;27;20431;-61
2022/09/01 08:05:21;;;;;;;5.45;2.33;;;17.70;99.90;;;;;;5074836;28;20514;-61
2022/09/01 08:07:48;;;;;;;6.20;2.33;;;17.70;99.90;;;;;;5088892;28;20054;-60
2022/09/01 08:10:14;;;;;;;7.28;2.20;;;17.70;99.90;;;;;;5116586;27;20047;-61
2022/09/01 08:12:40;;;;;;;5.55;2.45;;;17.80;99.90;;;;;;5092380;28;20039;-61
2022/09/01 08:15:07;;;;;;;3.50;1.67;;;18.00;99.90;;;;;;5114708;27;20054;-62
2022/09/01 08:17:35;;;;;;;4.63;2.05;;;18.10;99.90;;;;;;5117321;27;20157;-60
2022/09/01 08:20:01;;;;;;;4.40;1.77;;;18.20;99.90;;;;;;5090936;28;20040;-60
2022/09/01 08:22:26;;;;;;;5.57;1.77;;;18.30;99.90;;;;;;5098866;28;20089;-60
2022/09/01 08:24:52;;;;;;;4.13;1.90;;;18.20;99.90;;;;;;5078096;28;20480;-60
2022/09/01 08:27:19;;;;;;;4.80;1.98;;;18.20;99.90;;;;;;5094241;28;20426;-62
2022/09/01 08:29:44;;;;;;;4.13;2.03;;;18.10;99.90;;;;;;5093422;28;20043;-62
2022/09/01 08:32:10;;;;;;;3.83;1.92;;;18.20;99.90;;;;;;5113083;28;20363;-62
2022/09/01 08:34:36;;;;;;;4.35;2.20;;;18.10;99.90;;;;;;5118024;27;20035;-60
2022/09/01 08:37:04;;;;;;;5.47;2.33;;;18.10;99.90;;;;;;5118029;27;20479;-61
2022/09/01 08:39:31;;;;;;;4.78;2.20;;;18.10;99.90;;;;;;5118556;27;20399;-60
2022/09/01 08:42:43;;;;;;;4.35;2.05;;;18.20;99.90;;;;;;5131374;27;20517;-60
2022/09/01 08:45:32;;;;;;;4.50;2.00;;;18.20;99.90;;;;;;5078434;27;20039;-62
2022/09/01 08:48:14;;;;;;;5.38;2.28;;;18.30;99.90;;;;;;5110415;27;20050;-60
2022/09/01 08:50:42;;;;;;;4.35;2.20;;;18.30;99.90;;;;;;5131176;27;20076;-60
2022/09/01 08:53:22;;;;;;;4.35;2.40;;;18.40;99.90;;;;;;5095067;28;20048;-60
2022/09/01 08:55:52;;;;;;;6.15;2.97;;;18.50;99.90;;;;;;5093157;28;20588;-61
2022/09/01 08:58:18;;;;;;;4.55;2.10;;;18.50;99.90;;;;;;5111811;27;20085;-61
2022/09/01 09:00:52;;;;;;;4.75;1.75;;;18.60;99.90;;;;;;5100005;27;20080;-60
2022/09/01 09:03:24;;;;;;;;;;;18.70;99.90;;;;;;5102734;28;20040;-61
2022/09/01 09:06:02;;;;;;;3.58;1.50;;;18.80;99.90;;;;;;5104481;28;19922;-61
2022/09/01 09:08:53;;;;;;;5.68;1.65;;;18.90;99.90;;;;;;5100098;27;20043;-61
2022/09/01 09:11:33;;;;;;;5.70;2.42;;;19.00;99.90;;;;;;5109560;27;20044;-61
2022/09/01 09:14:14;;;;;;;4.43;2.03;;;19.10;99.90;;;;;;5118497;27;20130;-61
2022/09/01 09:16:41;;;;;;;4.85;1.77;;;19.20;99.90;;;;;;5116043;28;20123;-61
2022/09/01 09:19:23;;;;;;;7.20;2.08;;;19.30;99.90;;;;;;5103753;27;20059;-61
2022/09/01 09:21:51;;;;;;;4.70;1.88;;;19.40;99.90;;;;;;5127956;27;20043;-61
2022/09/01 09:24:49;;;;;;;5.90;2.35;;;19.40;99.90;;;;;;5097563;28;20028;-62
2022/09/01 09:27:20;;;;;;;4.05;1.75;;;19.50;99.90;;;;;;5069222;28;20044;-61
2022/09/01 09:30:04;;;;;;;4.88;2.15;;;19.60;99.90;;;;;;5065458;28;20097;-61
2022/09/01 09:33:03;;;;;;;7.93;2.15;;;19.70;99.90;;;;;;5100234;27;20035;-61
2022/09/01 09:35:35;;;;;;;4.88;2.08;;;19.70;99.90;;;;;;5134772;27;20035;-63
2022/09/01 09:38:21;;;;;;;4.85;1.92;;;19.70;99.90;;;;;;5099343;28;20555;-63
2022/09/01 09:41:04;;;;;;;3.78;1.73;;;19.70;99.90;;;;;;5096790;28;20044;-66
2022/09/01 09:43:42;;;;;;;3.92;1.70;;;19.70;99.90;;;;;;5116958;27;20038;-63
2022/09/01 09:46:25;;;;;;;3.00;1.77;;;19.70;99.90;;;;;;5133889;27;20487;-61
2022/09/01 09:49:09;;;;;;;3.70;1.90;;;19.80;99.90;;;;;;5115239;27;20084;-61
2022/09/01 09:51:36;;;;;;;5.13;1.55;;;19.90;99.90;;;;;;5100354;27;20080;-62
2022/09/01 09:54:17;;;;;;;3.67;1.60;;;19.90;99.90;;;;;;5124717;27;20075;-62
2022/09/01 09:56:43;;;;;;;2.83;1.23;;;20.00;99.90;;;;;;5097161;28;20127;-62
2022/09/01 09:59:27;;;;;;;3.30;1.23;;;20.10;99.90;;;;;;5115331;28;20075;-62
2022/09/01 10:02:51;;;;;;;4.60;1.65;;;20.10;99.90;;;;;;5098409;27;20044;-62
2022/09/01 10:05:40;;;;;;;4.68;1.70;;;20.20;99.90;;;;;;5071863;28;20083;-62
2022/09/01 10:08:33;;;;;;;3.08;1.30;;;20.20;99.90;;;;;;5066420;28;20048;-63
2022/09/01 10:10:59;;;;;;;8.85;2.13;;;20.30;99.90;;;;;;5120693;27;20093;-62
2022/09/01 10:13:29;;;;;;;3.15;1.63;;;20.20;99.90;;;;;;5132535;27;20429;-63
2022/09/01 10:15:59;;;;;;;4.65;1.30;;;20.30;99.90;;;;;;5114113;27;20073;-62
2022/09/01 10:18:39;;;;;;;5.32;1.73;;;20.30;99.90;;;;;;5114230;27;20107;-62
2022/09/01 10:21:15;;;;;;;4.82;1.98;;;20.30;99.90;;;;;;5124535;27;20438;-63
2022/09/01 10:23:42;;;;;;;4.97;2.10;;;20.40;99.90;;;;;;5093249;28;20044;-64
2022/09/01 10:26:22;;;;;;;6.15;1.83;;;20.50;99.90;;;;;;5110746;27;20035;-62
2022/09/01 10:29:05;;;;;;;4.45;1.80;;;20.70;99.50;;;;;;5126490;27;20475;-63
2022/09/01 10:31:31;;;;;;;4.13;1.65;;;20.70;99.80;;;;;;5097859;28;20059;-63
2022/09/01 10:34:00;;;;;;;5.72;1.55;;;20.70;99.60;;;;;;5113724;27;20118;-62
2022/09/01 10:36:26;;;;;;;2.97;1.25;;;20.80;98.30;;;;;;5111745;27;20958;-63
2022/09/01 10:38:52;;;;;;;3.17;1.50;;;20.80;97.80;;;;;;5128326;27;20088;-63
2022/09/01 10:41:56;;;;;;;3.95;1.08;;;20.60;96.70;;;;;;5131061;27;20079;-63
2022/09/01 10:44:32;;;;;;;3.75;0.85;;;20.60;95.50;;;;;;5131716;27;20038;-63
2022/09/01 10:47:18;;;;;;;2.42;1.20;;;20.70;95.30;;;;;;5112106;27;20070;-63
2022/09/01 10:49:44;;;;;;;2.50;1.27;;;20.70;94.10;;;;;;5093323;28;20039;-63
2022/09/01 10:52:10;;;;;;;6.40;1.85;;;20.50;93.00;;;;;;5110752;28;20039;-63
2022/09/01 10:54:39;;;;;;;2.22;0.90;;;20.50;92.30;;;;;;5104534;27;20511;-67
2022/09/01 10:57:34;;;;;;;8.13;3.85;;;20.50;92.20;;;;;;5130455;27;20084;-68
2022/09/01 11:00:35;;;;;;;5.93;3.10;;;20.60;92.70;;;;;;5097018;27;20047;-67
2022/09/01 11:03:14;;;;;;;5.40;2.15;;;20.80;92.10;;;;;;5075387;28;20440;-65
2022/09/01 11:05:54;;;;;;;3.47;1.30;;;21.00;91.30;;;;;;5072678;28;20063;-65
2022/09/01 11:08:38;;;;;;;3.50;1.23;;;21.20;87.20;;;;;;5096836;28;20126;-65
2022/09/01 11:11:24;;;;;;;5.67;1.60;;;21.40;87.00;;;;;;5129968;27;20043;-66
2022/09/01 11:13:57;;;;;;;4.90;1.33;;;21.50;84.50;;;;;;5112684;27;20081;-63
2022/09/01 11:16:38;;;;;;;2.15;0.80;;;21.60;83.00;;;;;;5112519;27;20039;-65
2022/09/01 11:19:30;;;;;;;2.55;1.00;;;21.90;81.80;;;;;;5112030;27;20100;-64
2022/09/01 11:22:09;;;;;;;1.63;0.70;;;22.00;77.40;;;;;;5121963;27;20101;-66
2022/09/01 11:24:41;;;;;;;3.10;1.00;;;22.10;76.00;;;;;;5110964;28;20118;-65
2022/09/01 11:27:31;;;;;;;1.33;0.70;;;22.00;75.50;;;;;;5119408;27;20483;-66
2022/09/01 11:30:08;;;;;;;3.08;0.98;;;22.00;75.90;;;;;;5124854;27;20035;-64
2022/09/01 11:32:37;;;;;;;2.20;0.82;;;22.00;74.20;;;;;;5101157;28;20040;-64
2022/09/01 11:35:06;;;;;;;3.45;0.95;;;22.00;73.90;;;;;;5092601;28;20064;-63
2022/09/01 11:37:32;;;;;;;2.47;1.08;;;22.10;73.80;;;;;;5089209;28;20036;-65
2022/09/01 11:40:03;;;;;;;6.07;2.35;;;22.20;74.40;;;;;;5098821;27;20054;-65
2022/09/01 11:42:38;;;;;;;3.38;1.08;;;22.20;72.50;;;;;;5095344;28;20161;-65
2022/09/01 11:45:27;;;;;;;19.23;3.67;;;22.40;73.30;;;;;;5119918;27;20122;-68
2022/09/01 11:47:57;;;;;;;4.90;1.20;;;22.50;72.70;;;;;;5073458;28;20512;-68
2022/09/01 11:50:35;;;;;;;2.72;0.90;;;22.50;72.00;;;;;;5085289;27;20049;-68
2022/09/01 11:53:06;;;;;;;3.22;1.27;;;22.50;71.20;;;;;;5093367;28;20119;-67
2022/09/01 11:55:35;;;;;;;2.05;0.90;;;22.50;71.50;;;;;;5090190;28;20040;-68
2022/09/01 11:58:01;;;;;;;4.15;1.27;;;22.50;71.70;;;;;;5076901;28;20391;-68
2022/09/01 12:00:37;;;;;;;2.75;1.20;;;22.60;71.70;;;;;;5094064;27;20096;-66
2022/09/01 12:03:05;;;;;;;2.70;0.90;;;22.60;71.30;;;;;;5130665;27;20039;-66
2022/09/01 12:05:34;;;;;;;1.70;0.73;;;22.60;70.30;;;;;;5117176;27;20556;-64
2022/09/01 12:08:04;;;;;;;1.52;0.77;;;22.50;70.20;;;;;;5110436;28;20506;-64
2022/09/01 12:10:34;;;;;;;2.45;0.88;;;22.40;69.30;;;;;;5120505;27;20035;-65
2022/09/01 12:13:16;;;;;;;2.60;1.05;;;22.10;69.60;;;;;;5109687;27;20035;-67
2022/09/01 12:15:41;;;;;;;2.20;0.90;;;22.00;70.40;;;;;;5093067;28;20490;-66
2022/09/01 12:18:39;;;;;;;2.35;0.98;;;21.80;70.80;;;;;;5109636;28;20052;-66
2022/09/01 12:21:08;;;;;;;2.97;1.00;;;21.70;71.20;;;;;;5091312;28;20134;-66
2022/09/01 12:23:41;;;;;;;1.98;1.00;;;21.90;72.20;;;;;;5130423;28;20483;-66
2022/09/01 12:26:18;;;;;;;2.13;0.90;;;22.10;71.90;;;;;;5097891;28;20040;-66
2022/09/01 12:28:45;;;;;;;3.55;1.17;;;22.30;70.70;;;;;;5107386;28;20039;-66
2022/09/01 12:31:17;;;;;;;3.72;1.05;;;22.40;70.90;;;;;;5083355;28;20063;-67
2022/09/01 12:33:44;;;;;;;2.00;0.80;;;22.60;70.40;;;;;;5100180;28;20048;-67
2022/09/01 12:36:22;;;;;;;4.25;0.95;;;22.70;69.50;;;;;;5089155;28;20094;-67
2022/09/01 12:38:49;;;;;;;2.92;0.93;;;22.60;68.80;;;;;;5074398;28;20055;-67
2022/09/01 12:41:36;;;;;;;2.17;0.70;;;22.60;69.20;;;;;;5095886;28;20047;-67
2022/09/01 12:44:33;;;;;;;3.55;1.00;;;22.70;68.80;;;;;;5109561;28;20027;-66
2022/09/01 12:47:05;;;;;;;2.00;0.90;;;22.80;68.30;;;;;;5117404;28;20071;-67
2022/09/01 12:49:47;;;;;;;2.92;1.13;;;22.70;68.90;;;;;;5121235;28;20183;-67
2022/09/01 12:52:24;;;;;;;2.95;1.05;;;22.60;68.70;;;;;;5075326;28;20044;-65
2022/09/01 12:54:57;;;;;;;2.08;0.80;;;22.60;68.10;;;;;;5120665;28;20491;-64
2022/09/01 12:57:38;;;;;;;1.83;0.80;;;22.50;68.30;;;;;;5124278;28;20051;-64
2022/09/01 13:00:10;;;;;;;2.17;0.75;;;22.50;67.60;;;;;;5094756;28;20124;-66
2022/09/01 13:02:39;;;;;;;3.47;0.90;;;22.40;66.30;;;;;;5130212;28;20043;-66
2022/09/01 13:05:24;;;;;;;2.50;1.00;;;22.30;67.00;;;;;;5110621;28;20043;-66
2022/09/01 13:07:53;;;;;;;3.60;0.80;;;22.40;67.60;;;;;;5099515;28;20449;-65
2022/09/01 13:10:20;;;;;;;3.05;1.00;;;22.30;68.10;;;;;;5113592;28;20126;-65
2022/09/01 13:12:46;;;;;;;2.75;0.90;;;22.30;67.80;;;;;;5077211;28;20397;-67
2022/09/01 13:15:13;;;;;;;3.22;0.90;;;22.30;67.00;;;;;;5101348;28;20032;-66